createdAt,value
2022-08-26T00:01:58.581Z,5.10
2022-08-26T00:05:04.034Z,4.47
2022-08-26T00:08:08.398Z,4.95
2022-08-26T00:11:15.795Z,4.68
2022-08-26T00:14:31.171Z,5.05
2022-08-26T00:17:34.962Z,4.75
2022-08-26T00:20:38.657Z,4.97
2022-08-26T00:23:45.273Z,4.73
2022-08-26T00:26:49.569Z,4.87
2022-08-26T00:29:52.313Z,4.68
2022-08-26T00:32:57.510Z,5.37
2022-08-26T00:36:01.663Z,5.10
2022-08-26T00:39:07.154Z,5.15
2022-08-26T00:42:10.134Z,5.03
2022-08-26T00:45:14.175Z,5.22
2022-08-26T00:48:22.474Z,5.07
2022-08-26T00:54:36.842Z,4.50
2022-08-26T00:57:39.824Z,4.75
2022-08-26T01:00:43.203Z,4.97
2022-08-26T01:03:48.408Z,4.95
2022-08-26T01:06:54.102Z,4.82
2022-08-26T01:09:57.435Z,4.62
2022-08-26T01:13:10.183Z,4.87
2022-08-26T01:16:16.047Z,5.18
2022-08-26T01:19:29.527Z,4.90
2022-08-26T01:22:52.454Z,4.60
2022-08-26T01:26:00.666Z,4.87
2022-08-26T01:29:06.995Z,4.65
2022-08-26T01:32:14.521Z,5.25
2022-08-26T01:35:17.424Z,4.63
2022-08-26T01:38:21.157Z,4.37
2022-08-26T01:41:27.156Z,4.70
2022-08-26T01:44:36.427Z,4.78
2022-08-26T01:47:39.288Z,5.20
2022-08-26T01:50:43.817Z,4.82
2022-08-26T01:53:46.907Z,5.03
2022-08-26T01:56:51.539Z,4.90
2022-08-26T01:59:58.412Z,4.70
2022-08-26T02:03:17.079Z,5.03
2022-08-26T02:06:20.156Z,5.35
2022-08-26T02:09:24.854Z,4.75
2022-08-26T02:12:28.311Z,4.72
2022-08-26T02:15:31.064Z,5.20
2022-08-26T02:18:36.727Z,5.55
2022-08-26T02:21:41.035Z,5.20
2022-08-26T02:24:51.264Z,5.40
2022-08-26T02:27:56.714Z,5.30
2022-08-26T02:30:59.576Z,5.00
2022-08-26T02:34:12.594Z,4.80
2022-08-26T02:37:15.425Z,5.30
2022-08-26T02:40:26.647Z,5.45
2022-08-26T02:43:31.477Z,5.60
2022-08-26T02:46:35.638Z,5.70
2022-08-26T02:49:42.728Z,5.20
2022-08-26T02:52:48.363Z,5.70
2022-08-26T02:55:51.254Z,6.45
2022-08-26T02:58:53.891Z,6.00
2022-08-26T03:01:56.789Z,5.97
2022-08-26T03:05:02.225Z,6.12
2022-08-26T03:08:05.336Z,5.50
2022-08-26T03:11:08.626Z,6.45
2022-08-26T03:14:14.072Z,6.45
2022-08-26T03:17:16.592Z,6.10
2022-08-26T03:20:19.511Z,6.12
2022-08-26T03:23:21.976Z,6.25
2022-08-26T03:26:25.767Z,5.93
2022-08-26T03:29:49.425Z,6.15
2022-08-26T03:32:53.234Z,6.10
2022-08-26T03:35:55.709Z,6.22
2022-08-26T03:38:59.594Z,6.07
2022-08-26T03:42:02.255Z,6.07
2022-08-26T03:45:07.602Z,6.22
2022-08-26T03:48:11.320Z,5.90
2022-08-26T03:51:18.186Z,5.85
2022-08-26T03:54:21.016Z,6.55
2022-08-26T03:57:23.896Z,6.80
2022-08-26T04:00:26.564Z,6.20
2022-08-26T04:03:48.088Z,6.10
2022-08-26T04:06:56.730Z,6.65
2022-08-26T04:09:59.715Z,6.10
2022-08-26T04:13:02.469Z,6.43
2022-08-26T04:16:05.818Z,6.40
2022-08-26T04:19:10.217Z,6.00
2022-08-26T04:22:13.249Z,5.90
2022-08-26T04:25:15.777Z,6.10
2022-08-26T04:28:19.073Z,5.85
2022-08-26T04:31:22.120Z,6.47
2022-08-26T04:34:28.803Z,6.35
2022-08-26T04:37:32.047Z,6.40
2022-08-26T04:40:35.650Z,6.30
2022-08-26T04:43:38.891Z,6.18
2022-08-26T04:46:43.772Z,6.37
2022-08-26T04:49:46.691Z,6.75
2022-08-26T04:52:49.967Z,6.05
2022-08-26T04:55:55.276Z,5.82
2022-08-26T04:58:58.584Z,6.32
2022-08-26T05:02:03.731Z,5.78
2022-08-26T05:05:08.983Z,5.72
2022-08-26T05:08:13.616Z,5.57
2022-08-26T05:11:16.380Z,5.35
2022-08-26T05:14:19.577Z,5.20
2022-08-26T05:17:22.633Z,5.25
2022-08-26T05:20:26.185Z,5.20
2022-08-26T05:23:31.444Z,5.20
2022-08-26T05:26:33.979Z,5.82
2022-08-26T05:29:36.687Z,5.07
2022-08-26T05:32:39.557Z,4.93
2022-08-26T05:35:43.821Z,4.47
2022-08-26T05:38:46.926Z,4.05
2022-08-26T05:41:50.110Z,4.80
2022-08-26T05:44:56.060Z,5.25
2022-08-26T05:47:59.095Z,4.75
2022-08-26T05:51:05.449Z,4.40
2022-08-26T05:54:08.265Z,4.87
2022-08-26T05:57:13.869Z,4.93
2022-08-26T06:00:16.813Z,4.62
2022-08-26T06:03:19.639Z,4.55
2022-08-26T06:06:27.921Z,4.20
2022-08-26T06:09:32.126Z,4.53
2022-08-26T06:12:35.230Z,4.60
2022-08-26T06:15:46.864Z,4.28
2022-08-26T06:18:50.971Z,4.30
2022-08-26T06:21:55.062Z,3.92
2022-08-26T06:25:15.919Z,4.28
2022-08-26T06:28:18.777Z,3.97
2022-08-26T06:31:23.035Z,4.03
2022-08-26T06:34:29.810Z,4.28
2022-08-26T06:37:33.116Z,3.92
2022-08-26T06:40:45.884Z,3.90
2022-08-26T06:43:49.887Z,3.83
2022-08-26T06:46:53.524Z,4.32
2022-08-26T06:49:56.395Z,4.37
2022-08-26T06:52:59.214Z,3.90
2022-08-26T06:56:06.439Z,3.40
2022-08-26T06:59:10.558Z,3.83
2022-08-26T07:02:13.593Z,3.80
2022-08-26T07:05:16.939Z,3.40
2022-08-26T07:08:19.553Z,3.47
2022-08-26T07:11:22.754Z,4.00
2022-08-26T07:14:26.863Z,3.60
2022-08-26T07:17:29.782Z,3.85
2022-08-26T07:20:32.488Z,3.15
2022-08-26T07:23:35.571Z,3.45
2022-08-26T07:26:42.961Z,3.45
2022-08-26T07:29:46.488Z,3.92
2022-08-26T07:32:49.695Z,3.42
2022-08-26T07:35:52.544Z,3.65
2022-08-26T07:38:55.650Z,3.22
2022-08-26T07:42:01.022Z,3.55
2022-08-26T07:45:04.316Z,3.60
2022-08-26T07:48:07.134Z,3.80
2022-08-26T07:51:09.904Z,3.50
2022-08-26T07:54:13.418Z,3.80
2022-08-26T07:57:15.942Z,3.55
2022-08-26T08:00:22.021Z,3.35
2022-08-26T08:03:24.807Z,3.35
2022-08-26T08:06:28.253Z,3.28
2022-08-26T08:09:31.189Z,3.53
2022-08-26T08:12:33.853Z,3.62
2022-08-26T08:15:37.674Z,3.47
2022-08-26T08:18:41.332Z,3.55
2022-08-26T08:21:44.948Z,3.25
2022-08-26T08:24:49.984Z,3.30
2022-08-26T08:27:56.014Z,3.28
2022-08-26T08:31:00.073Z,3.33
2022-08-26T08:34:03.781Z,3.83
2022-08-26T08:37:08.742Z,2.85
2022-08-26T08:40:18.374Z,3.03
2022-08-26T08:43:39.845Z,3.08
2022-08-26T08:46:44.414Z,3.50
2022-08-26T08:49:47.240Z,3.03
2022-08-26T08:53:10.484Z,3.15
2022-08-26T08:56:38.971Z,3.42
2022-08-26T08:59:53.470Z,3.67
2022-08-26T09:03:08.917Z,3.00
2022-08-26T09:06:17.034Z,3.05
2022-08-26T09:09:30.294Z,2.83
2022-08-26T09:12:34.174Z,3.08
2022-08-26T09:16:02.696Z,3.42
2022-08-26T09:19:19.759Z,3.40
2022-08-26T09:22:31.687Z,3.03
2022-08-26T09:25:45.610Z,3.20
2022-08-26T09:29:01.739Z,2.92
2022-08-26T09:32:24.423Z,2.92
2022-08-26T09:35:39.874Z,2.78
2022-08-26T09:38:43.930Z,2.45
2022-08-26T09:42:03.154Z,3.17
2022-08-26T09:45:10.485Z,3.03
2022-08-26T09:48:25.488Z,3.85
2022-08-26T09:51:32.302Z,2.70
2022-08-26T09:54:35.965Z,3.65
2022-08-26T09:57:54.723Z,3.30
2022-08-26T10:01:01.429Z,3.58
2022-08-26T10:04:07.351Z,3.25
2022-08-26T10:07:10.048Z,3.28
2022-08-26T10:10:24.094Z,3.40
2022-08-26T10:13:43.353Z,3.05
2022-08-26T10:16:59.643Z,3.20
2022-08-26T10:20:23.315Z,3.30
2022-08-26T10:23:30.939Z,3.10
2022-08-26T10:26:56.373Z,2.97
2022-08-26T10:30:06.965Z,3.22
2022-08-26T10:33:13.039Z,2.87
2022-08-26T10:36:47.205Z,3.05
2022-08-26T10:40:12.690Z,3.58
2022-08-26T10:43:21.289Z,3.15
2022-08-26T10:46:29.574Z,3.08
2022-08-26T10:49:33.044Z,3.28
2022-08-26T10:52:50.250Z,3.40
2022-08-26T10:56:31.022Z,3.17
2022-08-26T11:00:00.823Z,3.20
2022-08-26T11:03:26.056Z,2.92
2022-08-26T11:06:30.223Z,3.45
2022-08-26T11:09:46.844Z,2.95
2022-08-26T11:12:53.344Z,3.10
2022-08-26T11:15:58.643Z,3.65
2022-08-26T11:19:04.860Z,2.90
2022-08-26T11:22:09.404Z,3.15
2022-08-26T11:25:14.747Z,3.08
2022-08-26T11:28:39.709Z,2.83
2022-08-26T11:31:54.870Z,2.90
2022-08-26T11:35:00.397Z,2.97
2022-08-26T11:38:15.126Z,2.95
2022-08-26T11:41:21.292Z,2.70
2022-08-26T11:44:29.168Z,3.00
2022-08-26T11:47:32.469Z,3.05
2022-08-26T11:50:35.897Z,3.20
2022-08-26T11:53:42.500Z,2.83
2022-08-26T11:56:48.585Z,2.75
2022-08-26T11:59:51.867Z,2.73
2022-08-26T12:02:55.683Z,2.78
2022-08-26T12:05:59.727Z,2.78
2022-08-26T12:09:08.401Z,2.90
2022-08-26T12:12:14.776Z,2.90
2022-08-26T12:15:21.943Z,3.03
2022-08-26T12:18:31.116Z,2.90
2022-08-26T12:21:35.104Z,3.03
2022-08-26T12:24:46.704Z,3.30
2022-08-26T12:28:03.201Z,3.08
2022-08-26T12:31:06.891Z,2.78
2022-08-26T12:34:17.603Z,2.78
2022-08-26T12:37:21.409Z,2.95
2022-08-26T12:40:34.260Z,3.15
2022-08-26T12:43:45.204Z,2.83
2022-08-26T12:46:49.866Z,2.80
2022-08-26T12:50:45.026Z,3.10
2022-08-26T12:53:48.126Z,2.97
2022-08-26T12:56:51.982Z,2.78
2022-08-26T13:00:14.945Z,2.47
2022-08-26T13:06:48.371Z,2.60
2022-08-26T13:09:56.869Z,2.92
2022-08-26T13:12:59.384Z,3.00
2022-08-26T13:16:03.108Z,2.80
2022-08-26T13:19:10.177Z,2.92
2022-08-26T13:22:13.908Z,2.45
2022-08-26T13:25:19.632Z,2.83
2022-08-26T13:28:42.238Z,3.10
2022-08-26T13:31:45.988Z,2.90
2022-08-26T13:34:51.393Z,3.05
2022-08-26T13:37:54.100Z,2.60
2022-08-26T13:40:59.703Z,2.90
2022-08-26T13:44:02.811Z,2.67
2022-08-26T13:47:06.519Z,2.92
2022-08-26T13:50:09.139Z,2.72
2022-08-26T13:53:13.231Z,3.00
2022-08-26T13:56:15.748Z,3.12
2022-08-26T13:59:19.405Z,3.10
2022-08-26T14:02:22.550Z,2.87
2022-08-26T14:05:26.353Z,2.60
2022-08-26T14:08:29.676Z,3.00
2022-08-26T14:11:50.637Z,2.75
2022-08-26T14:14:55.160Z,2.78
2022-08-26T14:17:58.061Z,2.70
2022-08-26T14:21:01.057Z,2.87
2022-08-26T14:24:06.123Z,2.55
2022-08-26T14:27:08.660Z,2.80
2022-08-26T14:30:11.949Z,2.62
2022-08-26T14:33:15.199Z,2.72
2022-08-26T14:36:31.859Z,2.95
2022-08-26T14:39:34.980Z,3.37
2022-08-26T14:42:37.811Z,2.72
2022-08-26T14:45:43.690Z,3.08
2022-08-26T14:48:46.804Z,2.47
2022-08-26T14:51:49.559Z,3.03
2022-08-26T14:54:55.028Z,3.03
2022-08-26T14:57:58.710Z,2.42
2022-08-26T15:01:04.373Z,2.62
2022-08-26T15:04:07.276Z,2.87
2022-08-26T15:07:12.682Z,2.70
2022-08-26T15:10:17.971Z,2.78
2022-08-26T15:13:20.708Z,2.65
2022-08-26T15:16:24.052Z,2.60
2022-08-26T15:19:27.738Z,3.00
2022-08-26T15:22:30.338Z,2.70
2022-08-26T15:25:33.435Z,2.87
2022-08-26T15:28:37.136Z,2.87
2022-08-26T15:31:40.071Z,3.05
2022-08-26T15:34:42.837Z,2.92
2022-08-26T15:37:45.718Z,2.80
2022-08-26T15:40:48.343Z,2.72
2022-08-26T15:43:51.699Z,2.90
2022-08-26T15:46:58.370Z,2.90
2022-08-26T15:50:01.530Z,2.75
2022-08-26T15:53:05.201Z,3.00
2022-08-26T15:56:08.304Z,2.78
2022-08-26T15:59:11.992Z,2.90
2022-08-26T16:02:15.018Z,2.75
2022-08-26T16:05:18.335Z,2.80
2022-08-26T16:08:22.319Z,2.67
2022-08-26T16:11:26.372Z,3.10
2022-08-26T16:14:29.248Z,2.80
2022-08-26T16:17:32.149Z,3.10
2022-08-26T16:20:37.254Z,2.95
2022-08-26T16:23:40.256Z,3.08
2022-08-26T16:26:45.866Z,3.10
2022-08-26T16:29:48.734Z,2.80
2022-08-26T16:32:51.238Z,3.15
2022-08-26T16:35:54.308Z,2.62
2022-08-26T16:38:57.003Z,2.80
2022-08-26T16:41:59.835Z,2.85
2022-08-26T16:45:02.818Z,2.87
2022-08-26T16:48:06.437Z,3.12
2022-08-26T16:51:16.222Z,2.75
2022-08-26T16:54:19.019Z,2.53
2022-08-26T16:57:21.641Z,2.95
2022-08-26T17:00:28.138Z,3.03
2022-08-26T17:03:30.628Z,2.80
2022-08-26T17:06:34.070Z,2.90
2022-08-26T17:09:37.485Z,3.30
2022-08-26T17:12:44.419Z,2.85
2022-08-26T17:15:54.037Z,2.90
2022-08-26T17:19:00.235Z,2.80
2022-08-26T17:22:02.769Z,2.70
2022-08-26T17:25:15.556Z,3.10
2022-08-26T17:28:18.056Z,3.10
2022-08-26T17:31:22.101Z,3.08
2022-08-26T17:34:24.810Z,3.45
2022-08-26T17:37:28.236Z,3.25
2022-08-26T17:40:31.765Z,3.45
2022-08-26T17:43:34.875Z,2.80
2022-08-26T17:46:38.481Z,3.00
2022-08-26T17:49:41.468Z,2.92
2022-08-26T17:52:45.825Z,3.28
2022-08-26T17:55:49.520Z,2.90
2022-08-26T17:58:54.368Z,2.95
2022-08-26T18:01:58.944Z,3.15
2022-08-26T18:05:01.784Z,2.97
2022-08-26T18:08:04.355Z,3.20
2022-08-26T18:11:12.146Z,3.30
2022-08-26T18:14:15.165Z,3.30
2022-08-26T18:17:19.441Z,2.87
2022-08-26T18:20:22.264Z,2.95
2022-08-26T18:23:25.619Z,3.37
2022-08-26T18:26:32.193Z,3.35
2022-08-26T18:29:35.102Z,2.80
2022-08-26T18:32:37.648Z,3.08
2022-08-26T18:35:42.321Z,3.20
2022-08-26T18:38:46.398Z,3.30
2022-08-26T18:41:53.103Z,3.12
2022-08-26T18:44:55.744Z,3.25
2022-08-26T18:47:58.712Z,3.33
2022-08-26T18:51:01.257Z,2.95
2022-08-26T18:54:06.267Z,3.20
2022-08-26T18:57:09.410Z,3.72
2022-08-26T19:00:13.793Z,3.25
2022-08-26T19:03:18.758Z,3.67
2022-08-26T19:06:23.577Z,3.65
2022-08-26T19:09:27.288Z,3.33
2022-08-26T19:12:30.169Z,3.30
2022-08-26T19:15:40.706Z,3.58
2022-08-26T19:18:44.057Z,3.30
2022-08-26T19:21:47.162Z,3.65
2022-08-26T19:24:50.077Z,3.58
2022-08-26T19:27:52.589Z,3.55
2022-08-26T19:30:55.541Z,3.25
2022-08-26T19:33:59.009Z,3.90
2022-08-26T19:37:02.531Z,3.67
2022-08-26T19:40:06.320Z,3.03
2022-08-26T19:43:10.380Z,3.47
2022-08-26T19:46:18.178Z,3.80
2022-08-26T19:49:21.180Z,3.33
2022-08-26T19:52:30.034Z,4.28
2022-08-26T19:55:33.635Z,3.47
2022-08-26T19:58:36.351Z,3.40
2022-08-26T20:01:39.166Z,3.67
2022-08-26T20:04:42.830Z,3.60
2022-08-26T20:07:45.326Z,3.78
2022-08-26T20:10:49.789Z,3.60
2022-08-26T20:13:52.369Z,3.10
2022-08-26T20:16:55.652Z,3.67
2022-08-26T20:20:32.647Z,3.78
2022-08-26T20:23:36.961Z,3.30
2022-08-26T20:26:41.772Z,3.55
2022-08-26T20:29:44.554Z,3.58
2022-08-26T20:32:48.023Z,3.95
2022-08-26T20:35:51.351Z,3.47
2022-08-26T20:38:55.292Z,3.65
2022-08-26T20:41:58.303Z,3.75
2022-08-26T20:45:01.309Z,3.45
2022-08-26T20:48:04.380Z,3.75
2022-08-26T20:51:06.969Z,3.50
2022-08-26T20:54:12.271Z,3.80
2022-08-26T20:57:14.850Z,3.60
2022-08-26T21:00:22.562Z,3.92
2022-08-26T21:03:29.169Z,3.50
2022-08-26T21:06:33.868Z,4.03
2022-08-26T21:09:36.553Z,4.07
2022-08-26T21:12:41.128Z,3.85
2022-08-26T21:15:44.056Z,3.50
2022-08-26T21:18:47.520Z,4.00
2022-08-26T21:21:50.463Z,4.50
2022-08-26T21:24:53.972Z,3.55
2022-08-26T21:27:56.845Z,3.42
2022-08-26T21:31:03.629Z,3.80
2022-08-26T21:34:06.164Z,3.85
2022-08-26T21:37:13.342Z,3.70
2022-08-26T21:40:19.456Z,4.07
2022-08-26T21:43:33.615Z,4.05
2022-08-26T21:46:38.215Z,3.70
2022-08-26T21:49:40.947Z,4.18
2022-08-26T21:52:43.860Z,3.67
2022-08-26T21:55:49.687Z,3.95
2022-08-26T21:58:54.938Z,4.07
2022-08-26T22:01:58.677Z,3.62
2022-08-26T22:05:01.599Z,3.92
2022-08-26T22:08:04.684Z,3.33
2022-08-26T22:11:07.528Z,3.95
2022-08-26T22:14:10.563Z,3.60
2022-08-26T22:17:13.412Z,4.22
2022-08-26T22:20:16.742Z,4.05
2022-08-26T22:23:20.831Z,3.83
2022-08-26T22:26:26.015Z,4.25
2022-08-26T22:29:28.860Z,4.40
2022-08-26T22:32:31.343Z,3.80
2022-08-26T22:35:38.818Z,3.90
2022-08-26T22:38:41.388Z,3.78
2022-08-26T22:41:45.272Z,3.97
2022-08-26T22:44:47.894Z,3.65
2022-08-26T22:47:50.681Z,4.10
2022-08-26T22:50:59.597Z,4.30
2022-08-26T22:54:03.170Z,3.95
2022-08-26T22:57:05.663Z,4.00
2022-08-26T23:00:13.493Z,3.67
2022-08-26T23:03:17.201Z,3.60
2022-08-26T23:06:20.049Z,4.20
2022-08-26T23:09:22.613Z,3.60
2022-08-26T23:12:25.472Z,3.70
2022-08-26T23:15:28.090Z,4.20
2022-08-26T23:18:31.001Z,3.90
2022-08-26T23:21:33.773Z,3.40
2022-08-26T23:24:37.023Z,3.53
2022-08-26T23:27:42.716Z,3.83
2022-08-26T23:30:45.417Z,4.03
2022-08-26T23:34:06.375Z,3.80
2022-08-26T23:37:09.383Z,3.80
2022-08-26T23:40:15.874Z,3.90
2022-08-26T23:43:18.637Z,4.35
2022-08-26T23:46:21.555Z,4.18
2022-08-26T23:49:24.547Z,4.03
2022-08-26T23:52:46.167Z,3.87
2022-08-26T23:55:51.999Z,4.07
2022-08-26T23:58:55.334Z,4.03
